createdAt,value
2023-03-26T00:01:05.808Z,16.13
2023-03-26T00:05:14.617Z,17.95
2023-03-26T00:09:21.387Z,22.15
2023-03-26T00:13:28.075Z,20.70
2023-03-26T00:17:34.812Z,15.30
2023-03-26T00:21:41.726Z,17.42
2023-03-26T00:25:50.890Z,10.70
2023-03-26T00:29:59.617Z,16.60
2023-03-26T00:34:06.856Z,25.83
2023-03-26T00:38:14.768Z,19.60
2023-03-26T00:42:21.409Z,14.20
2023-03-26T00:46:31.191Z,25.08
2023-03-26T00:50:37.906Z,16.77
2023-03-26T00:54:48.452Z,12.65
2023-03-26T00:58:55.142Z,17.17
2023-03-26T01:03:04.546Z,22.08
2023-03-26T01:07:14.156Z,15.50
2023-03-26T01:11:27.963Z,18.92
2023-03-26T01:15:37.279Z,22.95
2023-03-26T01:19:57.124Z,16.52
2023-03-26T01:24:05.846Z,14.13
2023-03-26T01:28:13.579Z,12.68
2023-03-26T01:32:48.289Z,8.30
2023-03-26T01:37:13.114Z,15.45
2023-03-26T01:41:23.785Z,19.98
2023-03-26T01:45:38.152Z,15.30
2023-03-26T01:49:44.853Z,10.73
2023-03-26T01:53:53.069Z,15.13
2023-03-26T01:58:16.215Z,20.55
2023-03-26T02:02:38.763Z,15.77
2023-03-26T02:06:51.671Z,15.48
2023-03-26T02:11:01.142Z,14.52
2023-03-26T02:15:08.512Z,18.50
2023-03-26T02:19:21.405Z,15.70
2023-03-26T02:23:29.632Z,15.10
2023-03-26T02:27:37.770Z,9.38
2023-03-26T02:31:44.439Z,16.92
2023-03-26T02:35:51.170Z,18.88
2023-03-26T02:39:57.862Z,12.88
2023-03-26T02:44:05.765Z,16.05
2023-03-26T02:48:13.139Z,18.73
2023-03-26T02:52:19.904Z,9.45
2023-03-26T02:56:26.548Z,17.02
2023-03-26T03:00:34.360Z,13.68
2023-03-26T03:04:41.068Z,24.17
2023-03-26T03:08:47.832Z,23.27
2023-03-26T03:12:55.025Z,9.52
2023-03-26T03:17:01.747Z,18.15
2023-03-26T03:21:08.597Z,17.77
2023-03-26T03:25:17.445Z,24.25
2023-03-26T03:29:24.234Z,21.27
2023-03-26T03:33:31.356Z,35.08
2023-03-26T03:37:38.038Z,32.17
2023-03-26T03:41:44.781Z,23.33
2023-03-26T03:45:51.643Z,24.65
2023-03-26T03:50:00.229Z,30.27
2023-03-26T03:54:08.496Z,31.08
2023-03-26T03:58:21.701Z,29.88
2023-03-26T04:02:34.780Z,38.08
2023-03-26T04:06:41.758Z,36.53
2023-03-26T04:10:49.551Z,39.92
2023-03-26T04:14:56.905Z,38.15
2023-03-26T04:19:03.988Z,21.65
2023-03-26T04:23:14.148Z,34.97
2023-03-26T04:27:27.286Z,30.30
2023-03-26T04:31:34.195Z,37.42
2023-03-26T04:35:44.283Z,30.33
2023-03-26T04:39:50.996Z,28.23
2023-03-26T04:43:57.942Z,38.50
2023-03-26T04:48:07.280Z,26.80
2023-03-26T04:52:14.821Z,25.58
2023-03-26T04:56:35.292Z,28.73
2023-03-26T05:00:43.129Z,27.63
2023-03-26T05:04:50.011Z,27.15
2023-03-26T05:08:56.706Z,23.05
2023-03-26T05:13:03.394Z,27.33
2023-03-26T05:17:14.945Z,31.20
2023-03-26T05:21:22.396Z,28.33
2023-03-26T05:25:29.354Z,34.40
2023-03-26T05:29:35.983Z,35.65
2023-03-26T05:33:42.773Z,23.42
2023-03-26T05:37:51.376Z,28.23
2023-03-26T05:41:58.065Z,21.77
2023-03-26T05:46:04.970Z,43.30
2023-03-26T05:50:12.069Z,25.65
2023-03-26T05:54:18.739Z,30.02
2023-03-26T05:58:30.351Z,26.08
2023-03-26T06:02:37.079Z,18.30
2023-03-26T06:06:44.864Z,31.63
2023-03-26T06:10:57.623Z,34.20
2023-03-26T06:15:04.635Z,26.95
2023-03-26T06:19:11.364Z,24.83
2023-03-26T06:23:19.140Z,29.33
2023-03-26T06:27:25.839Z,27.08
2023-03-26T06:31:32.519Z,40.17
2023-03-26T06:35:39.391Z,30.85
2023-03-26T06:39:46.095Z,41.45
2023-03-26T06:43:52.948Z,27.27
2023-03-26T06:48:00.146Z,44.47
2023-03-26T06:52:06.792Z,45.20
2023-03-26T06:56:13.559Z,31.48
2023-03-26T07:00:21.014Z,32.72
2023-03-26T07:04:27.824Z,40.63
2023-03-26T07:08:34.595Z,32.97
2023-03-26T07:12:42.436Z,35.15
2023-03-26T07:16:49.227Z,41.17
2023-03-26T07:20:56.476Z,28.20
2023-03-26T07:25:03.689Z,35.72
2023-03-26T07:29:34.258Z,32.25
2023-03-26T07:33:51.525Z,35.38
2023-03-26T07:38:21.157Z,27.02
2023-03-26T07:42:43.032Z,37.53
2023-03-26T07:46:53.218Z,34.40
2023-03-26T07:51:00.364Z,27.88
2023-03-26T07:55:07.931Z,37.00
2023-03-26T07:59:36.901Z,29.40
2023-03-26T08:04:26.310Z,26.48
2023-03-26T08:08:47.097Z,31.35
2023-03-26T08:13:01.016Z,29.95
2023-03-26T08:17:10.664Z,37.58
2023-03-26T08:21:23.610Z,32.03
2023-03-26T08:26:10.379Z,39.83
2023-03-26T08:30:22.491Z,46.97
2023-03-26T08:34:29.159Z,36.13
2023-03-26T08:38:35.895Z,28.35
2023-03-26T08:43:05.191Z,28.55
2023-03-26T08:47:37.247Z,23.50
2023-03-26T08:52:02.360Z,38.20
2023-03-26T08:56:26.459Z,26.73
2023-03-26T09:00:41.731Z,27.50
2023-03-26T09:04:57.469Z,29.73
2023-03-26T09:09:23.039Z,24.63
2023-03-26T09:13:54.526Z,30.00
2023-03-26T09:18:28.938Z,32.20
2023-03-26T09:23:08.659Z,28.00
2023-03-26T09:27:34.300Z,18.58
2023-03-26T09:32:07.457Z,31.35
2023-03-26T09:36:33.023Z,31.05
2023-03-26T09:41:08.602Z,15.77
2023-03-26T09:45:37.356Z,26.48
2023-03-26T09:50:25.870Z,18.17
2023-03-26T09:54:44.751Z,23.08
2023-03-26T09:58:51.400Z,14.32
2023-03-26T10:03:08.145Z,11.10
2023-03-26T10:07:24.044Z,14.80
2023-03-26T10:12:00.781Z,15.27
2023-03-26T10:16:31.316Z,21.73
2023-03-26T10:20:46.316Z,12.07
2023-03-26T10:25:22.055Z,10.27
2023-03-26T10:29:53.731Z,13.32
2023-03-26T10:34:37.307Z,15.45
2023-03-26T10:39:03.068Z,12.45
2023-03-26T10:43:31.340Z,13.73
2023-03-26T10:48:08.962Z,10.73
2023-03-26T10:52:22.417Z,13.60
2023-03-26T10:56:46.184Z,8.05
2023-03-26T11:01:03.473Z,19.73
2023-03-26T11:05:23.260Z,16.98
2023-03-26T11:09:41.805Z,15.95
2023-03-26T11:14:09.564Z,17.48
2023-03-26T11:18:22.873Z,17.88
2023-03-26T11:22:46.411Z,15.40
2023-03-26T11:27:15.216Z,22.90
2023-03-26T11:31:28.726Z,13.85
2023-03-26T11:35:41.749Z,12.75
2023-03-26T11:39:55.140Z,11.07
2023-03-26T11:44:13.282Z,10.95
2023-03-26T11:48:31.730Z,16.08
2023-03-26T11:52:38.432Z,18.65
2023-03-26T11:57:06.022Z,11.57
2023-03-26T12:01:16.602Z,11.95
2023-03-26T12:05:26.630Z,20.20
2023-03-26T12:09:33.408Z,20.02
2023-03-26T12:13:44.081Z,8.13
2023-03-26T12:17:56.034Z,17.50
2023-03-26T12:22:02.817Z,19.88
2023-03-26T12:26:17.359Z,14.57
2023-03-26T12:30:33.881Z,17.42
2023-03-26T12:34:41.058Z,22.42
2023-03-26T12:40:06.234Z,11.45
2023-03-26T12:44:47.302Z,9.50
2023-03-26T12:48:01.599Z,18.02
2023-03-26T12:52:39.540Z,10.35
2023-03-26T12:57:12.111Z,15.98
2023-03-26T13:01:41.955Z,15.73
2023-03-26T13:06:02.649Z,13.70
2023-03-26T13:10:12.386Z,12.48
2023-03-26T13:14:38.935Z,17.50
2023-03-26T13:19:01.138Z,16.05
2023-03-26T13:23:32.294Z,12.00
2023-03-26T13:27:44.847Z,10.05
2023-03-26T13:32:05.781Z,8.52
2023-03-26T13:36:23.755Z,16.98
2023-03-26T13:40:52.996Z,11.98
2023-03-26T13:45:43.621Z,19.80
2023-03-26T13:49:54.742Z,10.20
2023-03-26T13:54:24.118Z,6.85
2023-03-26T13:58:44.399Z,11.77
2023-03-26T14:03:02.968Z,13.20
2023-03-26T14:07:22.489Z,9.60
2023-03-26T14:11:44.383Z,11.27
2023-03-26T14:16:26.353Z,7.82
2023-03-26T14:20:51.410Z,12.30
2023-03-26T14:25:08.398Z,13.98
2023-03-26T14:29:33.912Z,11.65
2023-03-26T14:33:59.645Z,11.68
2023-03-26T14:38:40.506Z,12.75
2023-03-26T14:42:56.385Z,2.97
2023-03-26T14:47:21.318Z,7.78
2023-03-26T14:51:43.038Z,11.63
2023-03-26T14:56:27.495Z,10.77
2023-03-26T15:01:06.642Z,6.78
2023-03-26T15:06:03.297Z,11.18
2023-03-26T15:10:41.089Z,7.32
2023-03-26T15:15:21.687Z,10.82
2023-03-26T15:19:56.071Z,5.65
2023-03-26T15:24:28.538Z,10.27
2023-03-26T15:29:09.737Z,10.88
2023-03-26T15:33:47.236Z,14.02
2023-03-26T15:38:28.294Z,10.25
2023-03-26T15:42:53.706Z,4.18
2023-03-26T15:47:29.445Z,8.13
2023-03-26T15:52:03.867Z,13.05
2023-03-26T15:56:10.713Z,6.72
2023-03-26T16:00:30.366Z,11.43
2023-03-26T16:04:50.457Z,9.35
2023-03-26T16:09:38.822Z,10.95
2023-03-26T16:14:12.507Z,10.25
2023-03-26T16:18:27.570Z,13.02
2023-03-26T16:23:01.615Z,9.23
2023-03-26T16:27:14.302Z,5.53
2023-03-26T16:31:37.507Z,10.07
2023-03-26T16:36:18.394Z,12.75
2023-03-26T16:40:28.260Z,5.97
2023-03-26T16:45:06.380Z,8.15
2023-03-26T16:49:37.855Z,5.43
2023-03-26T16:54:12.979Z,5.07
2023-03-26T16:59:06.417Z,9.95
2023-03-26T17:03:13.479Z,6.03
2023-03-26T17:07:37.156Z,13.98
2023-03-26T17:11:57.451Z,6.35
2023-03-26T17:16:18.607Z,18.65
2023-03-26T17:20:37.358Z,11.13
2023-03-26T17:24:57.369Z,7.47
2023-03-26T17:29:28.663Z,9.60
2023-03-26T17:33:38.731Z,9.20
2023-03-26T17:37:48.053Z,14.32
2023-03-26T17:42:10.417Z,6.22
2023-03-26T17:46:34.686Z,6.20
2023-03-26T17:50:49.157Z,9.45
2023-03-26T17:54:56.988Z,5.90
2023-03-26T17:59:11.819Z,8.55
2023-03-26T18:03:43.940Z,15.82
2023-03-26T18:08:19.580Z,4.72
2023-03-26T18:12:50.116Z,12.88
2023-03-26T18:17:00.177Z,14.07
2023-03-26T18:21:07.558Z,2.83
2023-03-26T18:25:32.203Z,7.88
2023-03-26T18:29:44.433Z,12.57
2023-03-26T18:33:56.969Z,9.73
2023-03-26T18:42:23.331Z,8.50
2023-03-26T18:46:33.001Z,6.55
2023-03-26T18:50:42.008Z,6.30
2023-03-26T18:54:52.102Z,15.18
2023-03-26T18:59:00.414Z,9.73
2023-03-26T19:03:08.243Z,13.18
2023-03-26T19:07:22.311Z,10.68
2023-03-26T19:11:30.253Z,9.00
2023-03-26T19:15:36.965Z,7.72
2023-03-26T19:19:43.649Z,10.05
2023-03-26T19:23:53.053Z,7.75
2023-03-26T19:27:59.818Z,14.02
2023-03-26T19:32:16.919Z,6.38
2023-03-26T19:36:29.616Z,6.82
2023-03-26T19:44:44.077Z,12.93
2023-03-26T19:48:53.309Z,10.50
2023-03-26T19:53:32.434Z,5.88
2023-03-26T19:57:39.097Z,6.00
2023-03-26T20:01:46.247Z,9.95
2023-03-26T20:05:52.951Z,7.63
2023-03-26T20:10:01.071Z,7.20
2023-03-26T20:14:16.803Z,7.85
2023-03-26T20:18:23.864Z,15.73
2023-03-26T20:22:31.454Z,10.98
2023-03-26T20:26:38.101Z,10.98
2023-03-26T20:30:46.695Z,10.63
2023-03-26T20:34:53.451Z,7.90
2023-03-26T20:39:00.790Z,3.07
2023-03-26T20:43:18.292Z,9.30
2023-03-26T20:47:25.314Z,11.07
2023-03-26T20:51:32.015Z,14.88
2023-03-26T20:55:38.669Z,6.22
2023-03-26T20:59:45.708Z,11.03
2023-03-26T21:03:52.398Z,7.47
2023-03-26T21:08:00.297Z,12.70
2023-03-26T21:12:29.615Z,7.25
2023-03-26T21:16:37.295Z,10.65
2023-03-26T21:20:51.368Z,11.43
2023-03-26T21:25:43.235Z,6.73
2023-03-26T21:29:50.221Z,14.27
2023-03-26T21:33:57.260Z,12.60
2023-03-26T21:38:05.410Z,11.20
2023-03-26T21:42:13.037Z,18.80
2023-03-26T21:46:20.445Z,9.87
2023-03-26T21:50:27.593Z,3.53
2023-03-26T21:54:34.530Z,7.33
2023-03-26T21:59:03.656Z,6.63
2023-03-26T22:03:25.350Z,10.87
2023-03-26T22:08:01.748Z,3.07
2023-03-26T22:12:08.803Z,6.73
2023-03-26T22:16:16.724Z,6.93
2023-03-26T22:20:28.013Z,9.60
2023-03-26T22:24:34.637Z,10.23
2023-03-26T22:28:41.485Z,9.23
2023-03-26T22:32:48.693Z,9.13
2023-03-26T22:36:55.421Z,4.13
2023-03-26T22:41:02.532Z,11.03
2023-03-26T22:45:09.969Z,15.00
2023-03-26T22:49:17.621Z,7.13
2023-03-26T22:53:25.062Z,11.70
2023-03-26T22:57:31.891Z,10.50
2023-03-26T23:01:38.982Z,13.57
2023-03-26T23:05:56.034Z,8.23
2023-03-26T23:10:02.982Z,9.27
2023-03-26T23:14:09.643Z,7.70
2023-03-26T23:18:17.220Z,9.37
2023-03-26T23:22:24.430Z,10.90
2023-03-26T23:26:43.942Z,5.60
2023-03-26T23:30:57.008Z,8.53
2023-03-26T23:35:04.641Z,4.40
2023-03-26T23:39:11.533Z,4.07
2023-03-26T23:43:21.510Z,2.73
2023-03-26T23:47:34.185Z,5.20
2023-03-26T23:51:42.098Z,11.17
2023-03-26T23:55:49.812Z,2.73
2023-03-26T23:59:56.530Z,4.93
